Time,TemperatureF,DewpointF,PressureIn,WindDirection,WindDirectionDegrees,WindSpeedMPH,WindSpeedGustMPH,Humidity,HourlyPrecipIn,Conditions,Clouds,dailyrainin,SoftwareType,DateUTC
2013-01-28 00:03:00,27.0,22.5,29.94,NNE,14,0.0,0.0,83,0.00,CLR,SKC,0.00,WeatherDisplay:10.37,2013-01-28 07:03:00,
2013-01-28 00:08:00,26.9,22.1,29.94,NNE,14,0.0,0.0,82,0.00,CLR,SKC,0.00,WeatherDisplay:10.37,2013-01-28 07:08:00,
2013-01-28 00:13:00,26.8,22.0,29.94,NNE,14,0.0,0.0,82,0.00,CLR,SKC,0.00,WeatherDisplay:10.37,2013-01-28 07:13:00,
2013-01-28 00:18:00,26.7,22.2,29.94,NNE,14,0.0,0.0,83,0.00,CLR,SKC,0.00,WeatherDisplay:10.37,2013-01-28 07:18:00,
2013-01-28 00:24:00,26.6,22.1,29.93,NNE,14,0.0,0.0,83,0.00,CLR,SKC,0.00,WeatherDisplay:10.37,2013-01-28 07:24:00,
2013-01-28 00:30:00,26.4,21.9,29.94,NNW,335,1.1,1.1,83,0.00,CLR,SKC,0.00,WeatherDisplay:10.37,2013-01-28 07:30:00,
2013-01-28 00:35:00,26.6,21.8,29.93,NNW,334,1.1,1.1,82,0.00,CLR,SKC,0.00,WeatherDisplay:10.37,2013-01-28 07:35:00,
2013-01-28 00:40:00,26.8,21.8,29.93,WNW,295,2.3,2.3,81,0.00,CLR,SKC,0.00,WeatherDisplay:10.37,2013-01-28 07:40:00,
2013-01-28 00:45:00,27.0,21.9,29.93,WNW,296,0.0,0.0,81,0.00,CLR,SKC,0.00,WeatherDisplay:10.37,2013-01-28 07:45:00,
2013-01-28 00:51:00,27.1,22.3,29.93,WNW,295,0.0,0.0,82,0.00,CLR,SKC,0.00,WeatherDisplay:10.37,2013-01-28 07:51:00,
2013-01-28 00:56:00,26.9,22.1,29.93,WNW,296,0.0,0.0,82,0.00,CLR,SKC,0.00,WeatherDisplay:10.37,2013-01-28 07:56:00,
2013-01-28 01:01:00,26.9,21.8,29.93,WNW,296,0.0,0.0,81,0.00,CLR,SKC,0.00,WeatherDisplay:10.37,2013-01-28 08:01:00,
2013-01-28 01:07:00,27.0,22.2,29.93,WNW,296,0.0,0.0,82,0.00,CLR,SKC,0.00,WeatherDisplay:10.37,2013-01-28 08:07:00,
2013-01-28 01:12:00,27.0,22.5,29.93,WNW,296,0.0,0.0,83,0.00,CLR,SKC,0.00,WeatherDisplay:10.37,2013-01-28 08:12:00,
2013-01-28 01:18:00,26.9,22.4,29.93,WNW,296,0.0,0.0,83,0.00,CLR,SKC,0.00,WeatherDisplay:10.37,2013-01-28 08:18:00,
2013-01-28 01:22:00,26.9,22.4,29.93,WNW,296,0.0,0.0,83,0.00,CLR,SKC,0.00,WeatherDisplay:10.37,2013-01-28 08:22:00,
2013-01-28 01:28:00,26.9,22.4,29.92,WNW,296,0.0,0.0,83,0.00,CLR,SKC,0.00,WeatherDisplay:10.37,2013-01-28 08:28:00,
2013-01-28 01:33:00,26.8,22.3,29.93,WNW,296,0.0,0.0,83,0.00,CLR,SKC,0.00,WeatherDisplay:10.37,2013-01-28 08:33:00,
2013-01-28 01:38:00,26.6,21.8,29.92,WNW,296,0.0,0.0,82,0.00,CLR,SKC,0.00,WeatherDisplay:10.37,2013-01-28 08:38:00,
2013-01-28 01:43:00,26.5,21.7,29.92,WNW,296,0.0,0.0,82,0.00,CLR,SKC,0.00,WeatherDisplay:10.37,2013-01-28 08:43:00,
2013-01-28 01:49:00,26.5,21.2,29.92,WNW,296,1.1,0.0,80,0.00,CLR,SKC,0.00,WeatherDisplay:10.37,2013-01-28 08:49:00,
2013-01-28 01:54:00,26.6,21.8,29.92,WNW,296,0.0,0.0,82,0.00,CLR,SKC,0.00,WeatherDisplay:10.37,2013-01-28 08:54:00,
2013-01-28 01:59:00,26.6,22.1,29.92,WNW,296,0.0,0.0,83,0.00,CLR,SKC,0.00,WeatherDisplay:10.37,2013-01-28 08:59:00,
2013-01-28 02:05:00,26.5,22.3,29.92,WNW,296,0.0,0.0,84,0.00,CLR,SKC,0.00,WeatherDisplay:10.37,2013-01-28 09:05:00,
2013-01-28 02:10:00,26.3,22.1,29.92,WNW,296,0.0,0.0,84,0.00,CLR,SKC,0.00,WeatherDisplay:10.37,2013-01-28 09:10:00,
2013-01-28 02:15:00,26.3,21.6,29.92,WNW,296,0.0,0.0,82,0.00,CLR,SKC,0.00,WeatherDisplay:10.37,2013-01-28 09:15:00,
2013-01-28 02:20:00,26.3,21.3,29.93,WNW,295,0.0,0.0,81,0.00,CLR,SKC,0.00,WeatherDisplay:10.37,2013-01-28 09:20:00,
2013-01-28 02:25:00,26.5,22.3,29.92,WNW,296,0.0,0.0,84,0.00,CLR,SKC,0.00,WeatherDisplay:10.37,2013-01-28 09:25:00,
2013-01-28 02:30:00,26.5,22.3,29.92,WNW,296,0.0,0.0,84,0.00,CLR,SKC,0.00,WeatherDisplay:10.37,2013-01-28 09:30:00,
2013-01-28 02:35:00,26.4,22.5,29.92,WNW,296,0.0,0.0,85,0.00,CLR,SKC,0.00,WeatherDisplay:10.37,2013-01-28 09:35:00,
2013-01-28 02:40:00,26.3,22.4,29.92,WNW,296,0.0,0.0,85,0.00,CLR,SKC,0.00,WeatherDisplay:10.37,2013-01-28 09:40:00,
2013-01-28 02:45:00,26.3,22.4,29.92,WNW,296,0.0,0.0,85,0.00,CLR,SKC,0.00,WeatherDisplay:10.37,2013-01-28 09:45:00,
2013-01-28 02:50:00,26.3,22.4,29.92,WNW,296,0.0,0.0,85,0.00,CLR,SKC,0.00,WeatherDisplay:10.37,2013-01-28 09:50:00,
2013-01-28 02:55:00,26.2,22.3,29.92,WNW,296,0.0,0.0,85,0.00,CLR,SKC,0.00,WeatherDisplay:10.37,2013-01-28 09:55:00,
2013-01-28 03:00:00,26.2,22.0,29.93,WNW,296,0.0,0.0,84,0.00,CLR,SKC,0.00,WeatherDisplay:10.37,2013-01-28 10:00:00,
2013-01-28 03:05:00,26.3,22.1,29.92,WNW,296,0.0,0.0,84,0.00,CLR,SKC,0.00,WeatherDisplay:10.37,2013-01-28 10:05:00,
2013-01-28 03:10:00,26.3,22.4,29.92,WNW,296,0.0,0.0,85,0.00,CLR,SKC,0.00,WeatherDisplay:10.37,2013-01-28 10:10:00,
2013-01-28 03:15:00,26.3,22.4,29.92,WNW,296,0.0,0.0,85,0.00,CLR,SKC,0.00,WeatherDisplay:10.37,2013-01-28 10:15:00,
2013-01-28 03:20:00,26.2,22.3,29.92,WNW,296,0.0,0.0,85,0.00,CLR,SKC,0.00,WeatherDisplay:10.37,2013-01-28 10:20:00,
2013-01-28 03:25:00,26.1,22.2,29.92,WNW,296,1.1,1.1,85,0.00,CLR,SKC,0.00,WeatherDisplay:10.37,2013-01-28 10:25:00,
2013-01-28 03:30:00,26.1,21.9,29.92,WNW,296,0.0,0.0,84,0.00,CLR,SKC,0.00,WeatherDisplay:10.37,2013-01-28 10:30:00,
2013-01-28 03:35:00,26.1,21.9,29.92,WNW,296,0.0,0.0,84,0.00,CLR,SKC,0.00,WeatherDisplay:10.37,2013-01-28 10:35:00,
2013-01-28 03:40:00,26.1,22.2,29.92,WNW,296,0.0,0.0,85,0.00,CLR,SKC,0.00,WeatherDisplay:10.37,2013-01-28 10:40:00,
2013-01-28 03:45:00,26.0,21.8,29.92,WNW,296,0.0,0.0,84,0.00,CLR,SKC,0.00,WeatherDisplay:10.37,2013-01-28 10:45:00,
2013-01-28 03:50:00,26.0,22.1,29.92,WNW,296,0.0,0.0,85,0.00,CLR,SKC,0.00,WeatherDisplay:10.37,2013-01-28 10:50:00,
2013-01-28 03:55:00,26.0,21.8,29.92,WNW,296,0.0,0.0,84,0.00,CLR,SKC,0.00,WeatherDisplay:10.37,2013-01-28 10:55:00,
2013-01-28 04:01:00,26.0,22.1,29.92,WNW,296,0.0,0.0,85,0.00,CLR,SKC,0.00,WeatherDisplay:10.37,2013-01-28 11:01:00,
2013-01-28 04:07:00,25.7,21.8,29.92,WNW,296,1.1,1.1,85,0.00,CLR,SKC,0.00,WeatherDisplay:10.37,2013-01-28 11:07:00,
2013-01-28 04:12:00,25.8,21.6,29.92,WNW,295,0.0,0.0,84,0.00,CLR,SKC,0.00,WeatherDisplay:10.37,2013-01-28 11:12:00,
2013-01-28 04:18:00,26.1,21.6,29.92,West,266,1.1,1.1,83,0.00,CLR,SKC,0.00,WeatherDisplay:10.37,2013-01-28 11:18:00,
2013-01-28 04:23:00,26.3,21.3,29.92,SW,218,3.5,3.5,81,0.00,CLR,SKC,0.00,WeatherDisplay:10.37,2013-01-28 11:23:00,
2013-01-28 04:28:00,26.8,20.9,29.92,SW,228,3.5,3.5,78,0.00,CLR,SKC,0.00,WeatherDisplay:10.37,2013-01-28 11:28:00,
2013-01-28 04:33:00,27.1,21.2,29.92,SSW,207,0.0,0.0,78,0.00,CLR,SKC,0.00,WeatherDisplay:10.37,2013-01-28 11:33:00,
2013-01-28 04:38:00,27.2,22.1,29.92,SSW,207,0.0,0.0,81,0.00,CLR,SKC,0.00,WeatherDisplay:10.37,2013-01-28 11:38:00,
2013-01-28 04:43:00,27.1,22.3,29.91,SSW,207,0.0,0.0,82,0.00,CLR,SKC,0.00,WeatherDisplay:10.37,2013-01-28 11:43:00,
2013-01-28 04:49:00,26.9,22.1,29.92,SSW,207,0.0,0.0,82,0.00,CLR,SKC,0.00,WeatherDisplay:10.37,2013-01-28 11:49:00,
2013-01-28 04:54:00,26.6,21.8,29.92,SSW,207,0.0,0.0,82,0.00,CLR,SKC,0.00,WeatherDisplay:10.37,2013-01-28 11:54:00,
2013-01-28 04:59:00,26.3,21.0,29.92,SSW,207,0.0,0.0,80,0.00,CLR,SKC,0.00,WeatherDisplay:10.37,2013-01-28 11:59:00,
2013-01-28 05:04:00,26.3,21.6,29.92,SSW,207,0.0,0.0,82,0.00,CLR,SKC,0.00,WeatherDisplay:10.37,2013-01-28 12:04:00,
2013-01-28 05:09:00,26.2,21.5,29.92,SSW,207,0.0,0.0,82,0.00,CLR,SKC,0.00,WeatherDisplay:10.37,2013-01-28 12:09:00,
2013-01-28 05:14:00,26.1,21.9,29.92,SSW,207,0.0,0.0,84,0.00,CLR,SKC,0.00,WeatherDisplay:10.37,2013-01-28 12:14:00,
2013-01-28 05:20:00,26.0,21.5,29.92,SSW,207,0.0,0.0,83,0.00,CLR,SKC,0.00,WeatherDisplay:10.37,2013-01-28 12:20:00,
2013-01-28 05:25:00,26.0,21.8,29.92,SSW,207,0.0,0.0,84,0.00,CLR,SKC,0.00,WeatherDisplay:10.37,2013-01-28 12:25:00,
2013-01-28 05:30:00,25.8,21.6,29.92,SSW,207,0.0,0.0,84,0.00,CLR,SKC,0.00,WeatherDisplay:10.37,2013-01-28 12:30:00,
2013-01-28 05:35:00,25.7,21.3,29.92,SSW,207,2.0,2.0,83,0.00,CLR,SKC,0.00,WeatherDisplay:10.37,2013-01-28 12:35:00,
2013-01-28 05:40:00,25.8,21.3,29.92,SSW,192,2.3,2.3,83,0.00,CLR,SKC,0.00,WeatherDisplay:10.37,2013-01-28 12:40:00,
2013-01-28 05:45:00,25.8,21.3,29.92,SSW,192,2.3,2.3,83,0.00,CLR,SKC,0.00,WeatherDisplay:10.37,2013-01-28 12:45:00,
2013-01-28 05:50:00,25.9,21.2,29.92,SW,222,3.0,3.0,82,0.00,CLR,SKC,0.00,WeatherDisplay:10.37,2013-01-28 12:50:00,
2013-01-28 05:55:00,26.4,21.4,29.92,SSW,205,1.1,1.1,81,0.00,CLR,SKC,0.00,WeatherDisplay:10.37,2013-01-28 12:55:00,
2013-01-28 06:00:00,26.9,21.6,29.92,SW,234,0.0,0.0,80,0.00,CLR,SKC,0.00,WeatherDisplay:10.37,2013-01-28 13:00:00,
2013-01-28 06:06:00,26.7,21.4,29.92,SW,234,1.1,1.1,80,0.00,CLR,SKC,0.00,WeatherDisplay:10.37,2013-01-28 13:06:00,
2013-01-28 06:11:00,26.5,21.5,29.92,SW,234,0.0,0.0,81,0.00,CLR,SKC,0.00,WeatherDisplay:10.37,2013-01-28 13:11:00,
2013-01-28 06:16:00,26.2,21.5,29.92,SW,234,0.0,0.0,82,0.00,CLR,SKC,0.00,WeatherDisplay:10.37,2013-01-28 13:16:00,
2013-01-28 06:21:00,26.3,20.7,29.92,SW,221,2.3,0.0,79,0.00,CLR,SKC,0.00,WeatherDisplay:10.37,2013-01-28 13:21:00,
2013-01-28 06:26:00,26.3,21.0,29.92,SW,221,1.1,0.0,80,0.00,CLR,SKC,0.00,WeatherDisplay:10.37,2013-01-28 13:26:00,
2013-01-28 06:32:00,26.3,20.7,29.92,SW,219,0.0,0.0,79,0.00,CLR,SKC,0.00,WeatherDisplay:10.37,2013-01-28 13:32:00,
2013-01-28 06:37:00,26.2,21.2,29.92,WSW,250,2.3,2.3,81,0.00,CLR,SKC,0.00,WeatherDisplay:10.37,2013-01-28 13:37:00,
2013-01-28 06:42:00,26.0,21.5,29.92,WSW,250,0.0,0.0,83,0.00,CLR,SKC,0.00,WeatherDisplay:10.37,2013-01-28 13:42:00,
2013-01-28 06:48:00,25.9,21.4,29.92,WSW,250,0.0,0.0,83,0.00,CLR,SKC,0.00,WeatherDisplay:10.37,2013-01-28 13:48:00,
2013-01-28 06:53:00,25.6,20.9,29.92,WSW,244,1.1,1.1,82,0.00,CLR,SKC,0.00,WeatherDisplay:10.37,2013-01-28 13:53:00,
2013-01-28 06:58:00,25.5,21.1,29.92,WSW,242,1.1,1.1,83,0.00,CLR,SKC,0.00,WeatherDisplay:10.37,2013-01-28 13:58:00,
2013-01-28 07:03:00,25.4,20.7,29.92,SW,225,1.1,0.0,82,0.00,CLR,SKC,0.00,WeatherDisplay:10.37,2013-01-28 14:03:00,
2013-01-28 07:08:00,25.6,20.9,29.92,SW,225,1.1,1.1,82,0.00,CLR,SKC,0.00,WeatherDisplay:10.37,2013-01-28 14:08:00,
2013-01-28 07:13:00,25.6,21.4,29.92,SW,225,0.0,0.0,84,0.00,CLR,SKC,0.00,WeatherDisplay:10.37,2013-01-28 14:13:00,
2013-01-28 07:18:00,25.5,20.8,29.93,SW,225,1.1,1.1,82,0.00,CLR,SKC,0.00,WeatherDisplay:10.37,2013-01-28 14:18:00,
2013-01-28 07:23:00,25.5,20.8,29.93,SW,225,0.0,0.0,82,0.00,CLR,SKC,0.00,WeatherDisplay:10.37,2013-01-28 14:23:00,
2013-01-28 07:28:00,25.5,21.1,29.93,SW,225,0.0,0.0,83,0.00,CLR,SKC,0.00,WeatherDisplay:10.37,2013-01-28 14:28:00,
2013-01-28 07:33:00,25.5,21.3,29.93,SW,225,0.0,0.0,84,0.00,CLR,SKC,0.00,WeatherDisplay:10.37,2013-01-28 14:33:00,
2013-01-28 07:38:00,25.5,21.6,29.93,SW,225,0.0,0.0,85,0.00,CLR,SKC,0.00,WeatherDisplay:10.37,2013-01-28 14:38:00,
2013-01-28 07:43:00,25.5,21.3,29.93,SW,225,0.0,0.0,84,0.00,CLR,SKC,0.00,WeatherDisplay:10.37,2013-01-28 14:43:00,
2013-01-28 07:48:00,25.4,21.0,29.93,SW,225,0.0,0.0,83,0.00,CLR,SKC,0.00,WeatherDisplay:10.37,2013-01-28 14:48:00,
2013-01-28 07:53:00,25.3,20.6,29.93,SW,225,0.0,0.0,82,0.00,CLR,SKC,0.00,WeatherDisplay:10.37,2013-01-28 14:53:00,
2013-01-28 07:58:00,25.2,21.3,29.93,SW,225,0.0,0.0,85,0.00,CLR,SKC,0.00,WeatherDisplay:10.37,2013-01-28 14:58:00,
2013-01-28 08:03:00,24.8,20.9,29.93,SW,225,0.0,0.0,85,0.00,CLR,SKC,0.00,WeatherDisplay:10.37,2013-01-28 15:03:00,
2013-01-28 08:08:00,24.7,21.1,29.93,SW,225,1.1,0.0,86,0.00,CLR,SKC,0.00,WeatherDisplay:10.37,2013-01-28 15:08:00,
2013-01-28 08:13:00,24.5,20.9,29.93,SW,225,0.0,0.0,86,0.00,CLR,SKC,0.00,WeatherDisplay:10.37,2013-01-28 15:13:00,
2013-01-28 08:19:00,24.4,20.5,29.93,SW,225,0.0,1.0,85,0.00,CLR,SKC,0.00,WeatherDisplay:10.37,2013-01-28 15:19:00,
2013-01-28 08:24:00,24.5,20.6,29.93,SW,225,0.0,0.0,85,0.00,CLR,SKC,0.00,WeatherDisplay:10.37,2013-01-28 15:24:00,
2013-01-28 08:30:00,24.5,20.9,29.93,SW,225,0.0,0.0,86,0.00,CLR,SKC,0.00,WeatherDisplay:10.37,2013-01-28 15:30:00,
2013-01-28 08:36:00,24.5,20.6,29.93,SW,225,0.0,0.0,85,0.00,CLR,SKC,0.00,WeatherDisplay:10.37,2013-01-28 15:36:00,
2013-01-28 08:41:00,24.5,20.6,29.93,SW,225,0.0,0.0,85,0.00,CLR,SKC,0.00,WeatherDisplay:10.37,2013-01-28 15:41:00,
2013-01-28 08:46:00,24.5,20.4,29.93,SW,225,0.0,0.0,84,0.00,CLR,SKC,0.00,WeatherDisplay:10.37,2013-01-28 15:46:00,
2013-01-28 08:51:00,24.6,20.7,29.93,SW,225,1.1,1.1,85,0.00,CLR,SKC,0.00,WeatherDisplay:10.37,2013-01-28 15:51:00,
2013-01-28 08:57:00,24.9,20.5,29.93,WSW,256,2.3,2.3,83,0.00,CLR,SKC,0.00,WeatherDisplay:10.37,2013-01-28 15:57:00,
2013-01-28 09:02:00,25.3,20.9,29.93,WSW,254,2.3,2.3,83,0.00,CLR,SKC,0.00,WeatherDisplay:10.37,2013-01-28 16:02:00,
2013-01-28 09:07:00,25.6,20.9,29.93,WSW,254,1.1,1.1,82,0.00,CLR,SKC,0.00,WeatherDisplay:10.37,2013-01-28 16:07:00,
2013-01-28 09:12:00,25.8,20.5,29.93,WSW,252,2.3,2.3,80,0.00,CLR,SKC,0.00,WeatherDisplay:10.37,2013-01-28 16:12:00,
2013-01-28 09:17:00,26.0,21.0,29.93,WSW,252,0.0,0.0,81,0.00,CLR,SKC,0.00,WeatherDisplay:10.37,2013-01-28 16:17:00,
2013-01-28 09:22:00,26.0,21.3,29.92,SW,232,1.1,1.1,82,0.00,CLR,SKC,0.00,WeatherDisplay:10.37,2013-01-28 16:22:00,
2013-01-28 09:27:00,25.9,20.6,29.92,SW,232,1.1,1.1,80,0.00,CLR,SKC,0.00,WeatherDisplay:10.37,2013-01-28 16:27:00,
2013-01-28 09:33:00,26.1,20.8,29.92,SW,227,2.3,2.3,80,0.00,CLR,SKC,0.00,WeatherDisplay:10.37,2013-01-28 16:33:00,
2013-01-28 09:38:00,26.3,20.4,29.92,South,188,2.3,2.3,78,0.00,CLR,SKC,0.00,WeatherDisplay:10.37,2013-01-28 16:38:00,
2013-01-28 09:43:00,26.5,20.9,29.92,South,184,2.3,2.3,79,0.00,CLR,SKC,0.00,WeatherDisplay:10.37,2013-01-28 16:43:00,
2013-01-28 09:48:00,26.8,21.5,29.92,South,184,0.0,2.0,80,0.00,CLR,SKC,0.00,WeatherDisplay:10.37,2013-01-28 16:48:00,
2013-01-28 09:54:00,27.1,21.5,29.92,South,184,1.1,0.0,79,0.00,CLR,SKC,0.00,WeatherDisplay:10.37,2013-01-28 16:54:00,
2013-01-28 09:59:00,27.5,21.2,29.92,South,184,0.0,0.0,77,0.00,CLR,SKC,0.00,WeatherDisplay:10.37,2013-01-28 16:59:00,
2013-01-28 10:04:00,27.9,20.7,29.92,South,181,2.3,2.3,74,0.00,CLR,SKC,0.00,WeatherDisplay:10.37,2013-01-28 17:04:00,
2013-01-28 10:09:00,28.5,20.9,29.92,South,181,1.1,1.1,73,0.00,CLR,SKC,0.00,WeatherDisplay:10.37,2013-01-28 17:09:00,
2013-01-28 10:14:00,29.0,20.8,29.92,SW,225,3.5,3.5,71,0.00,CLR,SKC,0.00,WeatherDisplay:10.37,2013-01-28 17:14:00,
2013-01-28 10:19:00,29.7,20.8,29.92,SSW,203,3.5,3.5,69,0.00,CLR,SKC,0.00,WeatherDisplay:10.37,2013-01-28 17:19:00,
2013-01-28 10:24:00,30.3,21.3,29.92,SW,225,3.5,3.5,69,0.00,CLR,SKC,0.00,WeatherDisplay:10.37,2013-01-28 17:24:00,
2013-01-28 10:29:00,30.6,20.9,29.92,WSW,239,3.5,3.5,67,0.00,CLR,SKC,0.00,WeatherDisplay:10.37,2013-01-28 17:29:00,
2013-01-28 10:35:00,30.9,20.9,29.92,South,188,3.5,3.5,66,0.00,CLR,SKC,0.00,WeatherDisplay:10.37,2013-01-28 17:35:00,
2013-01-28 10:40:00,31.2,22.2,29.92,South,190,2.3,2.3,69,0.00,CLR,SKC,0.00,WeatherDisplay:10.37,2013-01-28 17:40:00,
2013-01-28 10:46:00,31.3,22.0,29.92,WSW,241,3.5,3.5,68,0.00,CLR,SKC,0.00,WeatherDisplay:10.37,2013-01-28 17:46:00,
2013-01-28 10:51:00,31.6,22.2,29.92,SSW,196,3.5,3.5,68,0.00,CLR,SKC,0.00,WeatherDisplay:10.37,2013-01-28 17:51:00,
2013-01-28 10:56:00,32.1,22.0,29.92,SSW,200,3.5,3.5,66,0.00,CLR,SKC,0.00,WeatherDisplay:10.37,2013-01-28 17:56:00,
2013-01-28 11:01:00,32.5,21.7,29.92,SW,221,3.5,3.5,64,0.00,CLR,SKC,0.00,WeatherDisplay:10.37,2013-01-28 18:01:00,
2013-01-28 11:06:00,32.6,21.0,29.92,SW,232,4.6,4.6,62,0.00,CLR,SKC,0.00,WeatherDisplay:10.37,2013-01-28 18:06:00,
2013-01-28 11:11:00,32.4,21.2,29.92,South,190,3.5,3.5,63,0.00,CLR,SKC,0.00,WeatherDisplay:10.37,2013-01-28 18:11:00,
2013-01-28 11:16:00,32.8,21.2,29.91,SW,225,5.0,5.0,62,0.00,CLR,SKC,0.00,WeatherDisplay:10.37,2013-01-28 18:16:00,
2013-01-28 11:22:00,32.9,20.5,29.91,SSW,213,11.5,11.5,60,0.00,CLR,SKC,0.00,WeatherDisplay:10.37,2013-01-28 18:22:00,
2013-01-28 11:27:00,33.0,20.6,29.91,WSW,257,8.1,8.1,60,0.00,CLR,SKC,0.00,WeatherDisplay:10.37,2013-01-28 18:27:00,
2013-01-28 11:32:00,33.0,20.6,29.91,WSW,241,6.9,6.9,60,0.00,CLR,SKC,0.00,WeatherDisplay:10.37,2013-01-28 18:32:00,
2013-01-28 11:38:00,32.9,20.5,29.91,SW,220,2.0,5.0,60,0.00,CLR,SKC,0.00,WeatherDisplay:10.37,2013-01-28 18:38:00,
2013-01-28 11:43:00,32.9,20.1,29.90,SW,225,4.6,4.6,59,0.00,CLR,SKC,0.00,WeatherDisplay:10.37,2013-01-28 18:43:00,
2013-01-28 11:48:00,33.2,20.8,29.90,South,186,3.5,3.5,60,0.00,CLR,SKC,0.00,WeatherDisplay:10.37,2013-01-28 18:48:00,
2013-01-28 11:53:00,33.6,20.4,29.90,SW,233,6.9,6.9,58,0.00,CLR,SKC,0.00,WeatherDisplay:10.37,2013-01-28 18:53:00,
2013-01-28 11:58:00,34.1,20.4,29.90,SSW,212,3.5,3.5,57,0.00,CLR,SKC,0.00,WeatherDisplay:10.37,2013-01-28 18:58:00,
2013-01-28 12:03:00,34.4,19.9,29.89,South,173,5.8,5.8,55,0.00,CLR,SKC,0.00,WeatherDisplay:10.37,2013-01-28 19:03:00,
2013-01-28 12:08:00,34.7,19.3,29.89,SSE,155,4.0,4.0,53,0.00,CLR,SKC,0.00,WeatherDisplay:10.37,2013-01-28 19:08:00,
2013-01-28 12:13:00,35.0,19.1,29.89,SSE,165,9.2,9.2,52,0.00,CLR,SKC,0.00,WeatherDisplay:10.37,2013-01-28 19:13:00,
2013-01-28 12:18:00,35.2,19.3,29.88,South,176,4.6,4.6,52,0.00,CLR,SKC,0.00,WeatherDisplay:10.37,2013-01-28 19:18:00,
2013-01-28 12:23:00,35.5,19.6,29.88,SSW,209,6.9,6.9,52,0.00,CLR,SKC,0.00,WeatherDisplay:10.37,2013-01-28 19:23:00,
2013-01-28 12:28:00,35.4,19.0,29.88,SSW,196,6.9,6.9,51,0.00,CLR,SKC,0.00,WeatherDisplay:10.37,2013-01-28 19:28:00,
2013-01-28 12:33:00,35.2,18.9,29.87,SW,217,3.5,3.5,51,0.00,CLR,SKC,0.00,WeatherDisplay:10.37,2013-01-28 19:33:00,
2013-01-28 12:38:00,35.1,18.3,29.87,SW,233,5.0,5.0,50,0.00,CLR,SKC,0.00,WeatherDisplay:10.37,2013-01-28 19:38:00,
2013-01-28 12:43:00,35.0,18.7,29.87,SW,217,8.1,8.1,51,0.00,CLR,SKC,0.00,WeatherDisplay:10.37,2013-01-28 19:43:00,
2013-01-28 12:48:00,35.0,19.1,29.86,SSW,194,4.6,4.6,52,0.00,CLR,SKC,0.00,WeatherDisplay:10.37,2013-01-28 19:48:00,
2013-01-28 12:53:00,34.9,18.6,29.86,SSW,210,9.2,9.2,51,0.00,CLR,SKC,0.00,WeatherDisplay:10.37,2013-01-28 19:53:00,
2013-01-28 12:58:00,34.9,19.0,29.85,South,188,2.3,2.3,52,0.00,CLR,SKC,0.00,WeatherDisplay:10.37,2013-01-28 19:58:00,
2013-01-28 13:03:00,35.0,19.6,29.85,SW,215,3.5,3.5,53,0.00,CLR,SKC,0.00,WeatherDisplay:10.37,2013-01-28 20:03:00,
2013-01-28 13:09:00,34.9,19.5,29.85,SW,214,1.0,5.0,53,0.00,CLR,SKC,0.00,WeatherDisplay:10.37,2013-01-28 20:09:00,
2013-01-28 13:14:00,34.8,18.9,29.84,SSW,211,2.3,2.3,52,0.00,CLR,SKC,0.00,WeatherDisplay:10.37,2013-01-28 20:14:00,
2013-01-28 13:19:00,34.9,19.5,29.84,SSW,197,4.6,4.6,53,0.00,CLR,SKC,0.00,WeatherDisplay:10.37,2013-01-28 20:19:00,
2013-01-28 13:24:00,34.8,18.5,29.84,West,259,2.3,2.3,51,0.00,CLR,SKC,0.00,WeatherDisplay:10.37,2013-01-28 20:24:00,
2013-01-28 13:29:00,35.0,19.6,29.83,SW,216,2.3,2.3,53,0.00,CLR,SKC,0.00,WeatherDisplay:10.37,2013-01-28 20:29:00,
2013-01-28 13:34:00,35.1,19.2,29.83,South,188,4.6,4.6,52,0.00,CLR,SKC,0.00,WeatherDisplay:10.37,2013-01-28 20:34:00,
2013-01-28 13:40:00,35.1,19.2,29.83,SSW,192,2.3,2.3,52,0.00,CLR,SKC,0.00,WeatherDisplay:10.37,2013-01-28 20:40:00,
2013-01-28 13:46:00,35.3,19.4,29.83,South,188,2.3,2.3,52,0.00,CLR,SKC,0.00,WeatherDisplay:10.37,2013-01-28 20:46:00,
2013-01-28 13:51:00,35.4,19.5,29.82,SSE,165,4.0,4.0,52,0.00,CLR,SKC,0.00,WeatherDisplay:10.37,2013-01-28 20:51:00,
2013-01-28 13:57:00,35.3,18.0,29.83,WSW,239,3.5,3.5,49,0.00,CLR,SKC,0.00,WeatherDisplay:10.37,2013-01-28 20:57:00,
2013-01-28 14:02:00,35.2,17.9,29.83,SW,233,9.2,9.2,49,0.00,CLR,SKC,0.00,WeatherDisplay:10.37,2013-01-28 21:02:00,
2013-01-28 14:07:00,35.2,17.9,29.82,SSW,195,3.5,3.5,49,0.00,CLR,SKC,0.00,WeatherDisplay:10.37,2013-01-28 21:07:00,
2013-01-28 14:12:00,35.4,17.6,29.82,NW,305,1.1,0.0,48,0.00,CLR,SKC,0.00,WeatherDisplay:10.37,2013-01-28 21:12:00,
2013-01-28 14:18:00,35.6,17.3,29.82,SW,230,3.5,3.5,47,0.00,CLR,SKC,0.00,WeatherDisplay:10.37,2013-01-28 21:18:00,
2013-01-28 14:23:00,36.0,16.7,29.82,SSW,213,5.0,5.0,45,0.00,CLR,SKC,0.00,WeatherDisplay:10.37,2013-01-28 21:23:00,
2013-01-28 14:29:00,36.4,17.1,29.82,SSW,196,1.0,4.0,45,0.00,CLR,SKC,0.00,WeatherDisplay:10.37,2013-01-28 21:29:00,
2013-01-28 14:34:00,36.9,18.0,29.82,SW,223,3.5,3.5,46,0.00,CLR,SKC,0.00,WeatherDisplay:10.37,2013-01-28 21:34:00,
2013-01-28 14:39:00,37.5,19.1,29.82,SSW,202,8.1,8.1,47,0.00,CLR,SKC,0.00,WeatherDisplay:10.37,2013-01-28 21:39:00,
2013-01-28 14:44:00,37.5,17.0,29.82,SSW,205,6.9,6.9,43,0.00,CLR,SKC,0.00,WeatherDisplay:10.37,2013-01-28 21:44:00,
2013-01-28 14:49:00,37.0,17.1,29.82,SW,214,7.0,7.0,44,0.00,CLR,SKC,0.00,WeatherDisplay:10.37,2013-01-28 21:49:00,
2013-01-28 14:55:00,36.3,18.5,29.82,WSW,253,3.5,3.5,48,0.00,CLR,SKC,0.00,WeatherDisplay:10.37,2013-01-28 21:55:00,
2013-01-28 15:00:00,36.0,18.2,29.82,SW,224,8.1,8.1,48,0.00,CLR,SKC,0.00,WeatherDisplay:10.37,2013-01-28 22:00:00,
2013-01-28 15:06:00,35.8,18.0,29.81,SW,214,3.5,3.5,48,0.00,CLR,SKC,0.00,WeatherDisplay:10.37,2013-01-28 22:06:00,
2013-01-28 15:11:00,35.8,18.5,29.81,SSW,205,5.8,5.8,49,0.00,CLR,SKC,0.00,WeatherDisplay:10.37,2013-01-28 22:11:00,
2013-01-28 15:16:00,35.6,17.8,29.81,SW,232,6.9,6.9,48,0.00,CLR,SKC,0.00,WeatherDisplay:10.37,2013-01-28 22:16:00,
2013-01-28 15:21:00,35.4,18.1,29.81,WSW,254,3.5,3.5,49,0.00,CLR,SKC,0.00,WeatherDisplay:10.37,2013-01-28 22:21:00,
2013-01-28 15:27:00,35.2,18.4,29.81,WSW,243,5.8,5.8,50,0.00,CLR,SKC,0.00,WeatherDisplay:10.37,2013-01-28 22:27:00,
2013-01-28 15:32:00,35.1,18.3,29.81,WSW,241,5.0,5.0,50,0.00,CLR,SKC,0.00,WeatherDisplay:10.37,2013-01-28 22:32:00,
2013-01-28 15:37:00,35.0,18.7,29.82,WSW,251,3.5,3.5,51,0.00,CLR,SKC,0.00,WeatherDisplay:10.37,2013-01-28 22:37:00,
2013-01-28 15:42:00,34.9,18.6,29.82,WSW,240,8.1,8.1,51,0.00,CLR,SKC,0.00,WeatherDisplay:10.37,2013-01-28 22:42:00,
2013-01-28 15:47:00,34.7,18.9,29.82,SSW,205,6.9,6.9,52,0.00,CLR,SKC,0.00,WeatherDisplay:10.37,2013-01-28 22:47:00,
2013-01-28 15:52:00,34.6,19.2,29.82,WSW,243,3.5,3.5,53,0.00,CLR,SKC,0.00,WeatherDisplay:10.37,2013-01-28 22:52:00,
2013-01-28 15:57:00,34.4,19.5,29.82,SW,217,6.9,6.9,54,0.00,CLR,SKC,0.00,WeatherDisplay:10.37,2013-01-28 22:57:00,
2013-01-28 16:01:00,34.2,19.7,29.82,SW,221,5.8,5.8,55,0.00,CLR,SKC,0.00,WeatherDisplay:10.37,2013-01-28 23:01:00,
2013-01-28 16:06:00,34.0,19.9,29.82,SW,221,5.8,5.8,56,0.00,CLR,SKC,0.00,WeatherDisplay:10.37,2013-01-28 23:06:00,
2013-01-28 16:11:00,33.8,20.2,29.82,SW,226,4.6,4.6,57,0.00,CLR,SKC,0.00,WeatherDisplay:10.37,2013-01-28 23:11:00,
2013-01-28 16:16:00,33.7,20.5,29.82,SSW,201,10.4,10.4,58,0.00,CLR,SKC,0.00,WeatherDisplay:10.37,2013-01-28 23:16:00,
2013-01-28 16:21:00,33.7,20.5,29.81,WSW,240,4.6,4.6,58,0.00,CLR,SKC,0.00,WeatherDisplay:10.37,2013-01-28 23:21:00,
2013-01-28 16:27:00,33.6,20.8,29.82,SW,224,3.5,3.5,59,0.00,CLR,SKC,0.00,WeatherDisplay:10.37,2013-01-28 23:27:00,
2013-01-28 16:32:00,33.6,20.4,29.82,SSW,198,6.9,6.9,58,0.00,CLR,SKC,0.00,WeatherDisplay:10.37,2013-01-28 23:32:00,
2013-01-28 16:38:00,33.5,21.1,29.82,SW,220,3.0,6.0,60,0.00,CLR,SKC,0.00,WeatherDisplay:10.37,2013-01-28 23:38:00,
2013-01-28 16:43:00,33.3,20.9,29.82,SW,215,4.6,4.6,60,0.00,CLR,SKC,0.00,WeatherDisplay:10.37,2013-01-28 23:43:00,
2013-01-28 16:48:00,33.2,21.6,29.82,SSW,205,3.5,3.5,62,0.00,CLR,SKC,0.00,WeatherDisplay:10.37,2013-01-28 23:48:00,
2013-01-28 16:53:00,33.0,21.4,29.82,SW,232,4.0,4.0,62,0.00,CLR,SKC,0.00,WeatherDisplay:10.37,2013-01-28 23:53:00,
2013-01-28 16:58:00,32.9,21.7,29.82,WSW,240,3.5,3.5,63,0.00,CLR,SKC,0.00,WeatherDisplay:10.37,2013-01-28 23:58:00,
2013-01-28 17:04:00,32.8,21.6,29.82,SW,219,3.5,3.5,63,0.00,CLR,SKC,0.00,WeatherDisplay:10.37,2013-01-29 00:04:00,
2013-01-28 17:09:00,32.8,22.0,29.82,SW,218,2.3,2.3,64,0.00,CLR,SKC,0.00,WeatherDisplay:10.37,2013-01-29 00:09:00,
2013-01-28 17:14:00,32.8,21.6,29.82,WSW,253,1.1,0.0,63,0.00,CLR,SKC,0.00,WeatherDisplay:10.37,2013-01-29 00:14:00,
2013-01-28 17:19:00,32.7,21.9,29.82,WSW,253,0.0,0.0,64,0.00,CLR,SKC,0.00,WeatherDisplay:10.37,2013-01-29 00:19:00,
2013-01-28 17:24:00,32.6,22.1,29.82,WSW,253,0.0,0.0,65,0.00,CLR,SKC,0.00,WeatherDisplay:10.37,2013-01-29 00:24:00,
2013-01-28 17:29:00,32.5,22.8,29.81,WSW,253,0.0,0.0,67,0.00,CLR,SKC,0.00,WeatherDisplay:10.37,2013-01-29 00:29:00,
2013-01-28 17:34:00,32.3,22.9,29.81,WSW,253,0.0,0.0,68,0.00,CLR,SKC,0.00,WeatherDisplay:10.37,2013-01-29 00:34:00,
2013-01-28 17:39:00,32.1,22.4,29.81,WSW,253,0.0,0.0,67,0.00,CLR,SKC,0.00,WeatherDisplay:10.37,2013-01-29 00:39:00,
2013-01-28 17:44:00,31.9,22.5,29.81,WSW,253,2.3,2.3,68,0.00,CLR,SKC,0.00,WeatherDisplay:10.37,2013-01-29 00:44:00,
2013-01-28 17:49:00,31.8,22.8,29.81,SSW,194,2.3,2.3,69,0.00,CLR,SKC,0.00,WeatherDisplay:10.37,2013-01-29 00:49:00,
2013-01-28 17:54:00,31.8,23.5,29.81,SSW,194,3.5,3.5,71,0.00,CLR,SKC,0.00,WeatherDisplay:10.37,2013-01-29 00:54:00,
2013-01-28 17:59:00,31.6,23.6,29.81,SW,232,3.5,3.5,72,0.00,CLR,SKC,0.00,WeatherDisplay:10.37,2013-01-29 00:59:00,
2013-01-28 18:04:00,31.5,23.8,29.81,SSW,207,8.1,8.1,73,0.00,CLR,SKC,0.00,WeatherDisplay:10.37,2013-01-29 01:04:00,
2013-01-28 18:09:00,31.4,23.7,29.81,WSW,255,4.6,4.6,73,0.00,CLR,SKC,0.00,WeatherDisplay:10.37,2013-01-29 01:09:00,
2013-01-28 18:15:00,31.3,24.0,29.81,SSW,213,3.5,3.5,74,0.00,CLR,SKC,0.00,WeatherDisplay:10.37,2013-01-29 01:15:00,
2013-01-28 18:20:00,31.3,23.6,29.81,WSW,239,3.5,3.5,73,0.00,CLR,SKC,0.00,WeatherDisplay:10.37,2013-01-29 01:20:00,
2013-01-28 18:25:00,31.3,23.6,29.81,SW,219,2.3,2.3,73,0.00,CLR,SKC,0.00,WeatherDisplay:10.37,2013-01-29 01:25:00,
2013-01-28 18:30:00,31.2,23.9,29.81,SW,235,3.5,3.5,74,0.00,CLR,SKC,0.00,WeatherDisplay:10.37,2013-01-29 01:30:00,
2013-01-28 18:35:00,31.2,23.9,29.81,SW,223,3.5,3.5,74,0.00,CLR,SKC,0.00,WeatherDisplay:10.37,2013-01-29 01:35:00,
2013-01-28 18:40:00,31.1,23.8,29.81,South,183,4.6,4.6,74,0.00,CLR,SKC,0.00,WeatherDisplay:10.37,2013-01-29 01:40:00,
2013-01-28 18:46:00,31.1,24.1,29.80,WSW,253,7.0,7.0,75,0.00,CLR,SKC,0.00,WeatherDisplay:10.37,2013-01-29 01:46:00,
2013-01-28 18:51:00,31.0,24.0,29.81,South,175,4.6,4.6,75,0.00,CLR,SKC,0.00,WeatherDisplay:10.37,2013-01-29 01:51:00,
2013-01-28 18:56:00,31.0,24.0,29.81,SSW,195,5.8,5.8,75,0.00,CLR,SKC,0.00,WeatherDisplay:10.37,2013-01-29 01:56:00,
2013-01-28 19:01:00,30.9,24.5,29.81,South,184,4.6,4.6,77,0.00,CLR,SKC,0.00,WeatherDisplay:10.37,2013-01-29 02:01:00,
2013-01-28 19:07:00,30.6,24.6,29.81,SW,216,3.5,3.5,78,0.00,CLR,SKC,0.00,WeatherDisplay:10.37,2013-01-29 02:07:00,
2013-01-28 19:12:00,30.5,24.5,29.81,SW,233,3.5,3.5,78,0.00,CLR,SKC,0.00,WeatherDisplay:10.37,2013-01-29 02:12:00,
2013-01-28 19:17:00,30.5,24.1,29.81,WSW,243,4.6,4.6,77,0.00,CLR,SKC,0.00,WeatherDisplay:10.37,2013-01-29 02:17:00,
2013-01-28 19:22:00,30.5,24.1,29.82,SW,231,3.5,3.5,77,0.00,CLR,SKC,0.00,WeatherDisplay:10.37,2013-01-29 02:22:00,
2013-01-28 19:27:00,30.5,24.1,29.82,SW,225,3.5,3.5,77,0.00,CLR,SKC,0.00,WeatherDisplay:10.37,2013-01-29 02:27:00,
2013-01-28 19:33:00,30.5,24.1,29.81,SW,225,2.3,2.3,77,0.00,CLR,SKC,0.00,WeatherDisplay:10.37,2013-01-29 02:33:00,
2013-01-28 19:39:00,30.6,23.9,29.82,SW,225,0.0,1.0,76,0.00,CLR,SKC,0.00,WeatherDisplay:10.37,2013-01-29 02:39:00,
2013-01-28 19:44:00,30.6,23.9,29.82,SW,225,1.1,0.0,76,0.00,CLR,SKC,0.00,WeatherDisplay:10.37,2013-01-29 02:44:00,
2013-01-28 19:49:00,30.7,24.0,29.82,SW,225,2.3,2.3,76,0.00,CLR,SKC,0.00,WeatherDisplay:10.37,2013-01-29 02:49:00,
2013-01-28 19:54:00,30.7,23.7,29.82,SW,225,1.1,0.0,75,0.00,CLR,SKC,0.00,WeatherDisplay:10.37,2013-01-29 02:54:00,
2013-01-28 19:59:00,30.7,23.7,29.82,SW,225,1.1,1.1,75,0.00,CLR,SKC,0.00,WeatherDisplay:10.37,2013-01-29 02:59:00,
2013-01-28 20:04:00,30.7,24.0,29.82,SW,225,1.1,0.0,76,0.00,CLR,SKC,0.00,WeatherDisplay:10.37,2013-01-29 03:04:00,
2013-01-28 20:09:00,30.6,24.2,29.82,SW,215,2.3,2.3,77,0.00,CLR,SKC,0.00,WeatherDisplay:10.37,2013-01-29 03:09:00,
2013-01-28 20:15:00,30.6,24.2,29.82,SW,215,0.0,0.0,77,0.00,CLR,SKC,0.00,WeatherDisplay:10.37,2013-01-29 03:15:00,
2013-01-28 20:20:00,30.6,23.9,29.81,South,171,3.5,3.5,76,0.00,CLR,SKC,0.00,WeatherDisplay:10.37,2013-01-29 03:20:00,
2013-01-28 20:25:00,30.7,24.3,29.81,SSW,208,2.3,2.3,77,0.00,CLR,SKC,0.00,WeatherDisplay:10.37,2013-01-29 03:25:00,
2013-01-28 20:30:00,30.7,24.3,29.81,South,190,2.3,2.3,77,0.00,CLR,SKC,0.00,WeatherDisplay:10.37,2013-01-29 03:30:00,
2013-01-28 20:36:00,30.8,24.1,29.81,SW,215,3.5,3.5,76,0.00,CLR,SKC,0.00,WeatherDisplay:10.37,2013-01-29 03:36:00,
2013-01-28 20:41:00,30.8,24.1,29.81,SSW,194,6.9,6.9,76,0.00,CLR,SKC,0.00,WeatherDisplay:10.37,2013-01-29 03:41:00,
2013-01-28 20:46:00,30.6,24.2,29.82,South,180,4.0,4.0,77,0.00,CLR,SKC,0.00,WeatherDisplay:10.37,2013-01-29 03:46:00,
2013-01-28 20:51:00,30.3,24.6,29.82,SSW,206,3.5,3.5,79,0.00,CLR,SKC,0.00,WeatherDisplay:10.37,2013-01-29 03:51:00,
2013-01-28 20:56:00,30.2,24.8,29.82,SW,229,2.3,2.3,80,0.00,CLR,SKC,0.00,WeatherDisplay:10.37,2013-01-29 03:56:00,
2013-01-28 21:01:00,30.1,24.7,29.82,South,171,3.5,3.5,80,0.00,CLR,SKC,0.00,WeatherDisplay:10.37,2013-01-29 04:01:00,
2013-01-28 21:06:00,29.9,24.8,29.82,SW,234,2.3,2.3,81,0.00,CLR,SKC,0.00,WeatherDisplay:10.37,2013-01-29 04:06:00,
2013-01-28 21:12:00,29.8,25.0,29.82,SW,220,3.5,3.5,82,0.00,CLR,SKC,0.00,WeatherDisplay:10.37,2013-01-29 04:12:00,
2013-01-28 21:18:00,29.7,25.2,29.82,SW,231,1.0,3.0,83,0.00,CLR,SKC,0.00,WeatherDisplay:10.37,2013-01-29 04:18:00,
2013-01-28 21:23:00,29.5,25.3,29.82,SW,234,3.5,3.5,84,0.00,CLR,SKC,0.00,WeatherDisplay:10.37,2013-01-29 04:23:00,
2013-01-28 21:29:00,29.4,25.2,29.82,SW,236,1.1,1.1,84,0.00,CLR,SKC,0.00,WeatherDisplay:10.37,2013-01-29 04:29:00,
2013-01-28 21:34:00,29.4,25.2,29.82,SW,236,1.1,1.1,84,0.00,CLR,SKC,0.00,WeatherDisplay:10.37,2013-01-29 04:34:00,
2013-01-28 21:39:00,29.4,25.4,29.82,SW,236,0.0,0.0,85,0.00,CLR,SKC,0.00,WeatherDisplay:10.37,2013-01-29 04:39:00,
2013-01-28 21:44:00,29.4,25.4,29.82,SW,224,2.3,2.3,85,0.00,CLR,SKC,0.00,WeatherDisplay:10.37,2013-01-29 04:44:00,
2013-01-28 21:49:00,29.3,25.4,29.82,SW,224,2.3,2.3,85,0.00,CLR,SKC,0.00,WeatherDisplay:10.37,2013-01-29 04:49:00,
2013-01-28 21:55:00,29.2,25.3,29.82,SW,222,0.0,0.0,85,0.00,CLR,SKC,0.00,WeatherDisplay:10.37,2013-01-29 04:55:00,
2013-01-28 22:00:00,29.2,25.0,29.82,SW,222,1.1,1.1,84,0.00,CLR,SKC,0.00,WeatherDisplay:10.37,2013-01-29 05:00:00,
2013-01-28 22:01:00,29.2,25.0,29.82,SW,222,1.1,1.1,84,0.00,CLR,SKC,0.00,WeatherDisplay:10.37,2013-01-29 05:01:00,
2013-01-28 22:03:00,29.2,25.3,29.82,SW,222,1.0,2.0,85,0.00,CLR,SKC,0.00,WeatherDisplay:10.37,2013-01-29 05:03:00,
2013-01-28 22:08:00,29.2,25.3,29.81,SW,222,0.0,0.0,85,0.00,CLR,SKC,0.00,WeatherDisplay:10.37,2013-01-29 05:08:00,
2013-01-28 22:13:00,29.2,25.3,29.81,SW,222,0.0,0.0,85,0.00,CLR,SKC,0.00,WeatherDisplay:10.37,2013-01-29 05:13:00,
2013-01-28 22:18:00,29.2,25.5,29.81,SW,222,0.0,0.0,86,0.00,CLR,SKC,0.00,WeatherDisplay:10.37,2013-01-29 05:18:00,
2013-01-28 22:23:00,29.1,25.4,29.81,SW,222,0.0,0.0,86,0.00,CLR,SKC,0.00,WeatherDisplay:10.37,2013-01-29 05:23:00,
2013-01-28 22:29:00,29.1,25.4,29.81,SW,222,2.3,2.3,86,0.00,CLR,SKC,0.00,WeatherDisplay:10.37,2013-01-29 05:29:00,
2013-01-28 22:34:00,29.0,25.6,29.81,SW,222,0.0,0.0,87,0.00,CLR,SKC,0.00,WeatherDisplay:10.37,2013-01-29 05:34:00,
2013-01-28 22:39:00,28.9,25.5,29.81,SW,222,1.1,0.0,87,0.00,CLR,SKC,0.00,WeatherDisplay:10.37,2013-01-29 05:39:00,
2013-01-28 22:44:00,28.8,25.4,29.81,SW,222,0.0,0.0,87,0.00,CLR,SKC,0.00,WeatherDisplay:10.37,2013-01-29 05:44:00,
2013-01-28 22:49:00,28.8,25.7,29.81,SW,222,0.0,0.0,88,0.00,CLR,SKC,0.00,WeatherDisplay:10.37,2013-01-29 05:49:00,
2013-01-28 22:54:00,28.7,25.6,29.81,SW,222,0.0,0.0,88,0.00,CLR,SKC,0.00,WeatherDisplay:10.37,2013-01-29 05:54:00,
2013-01-28 22:59:00,28.7,25.6,29.81,SW,222,0.0,0.0,88,0.00,CLR,SKC,0.00,WeatherDisplay:10.37,2013-01-29 05:59:00,
2013-01-28 23:04:00,28.7,25.6,29.81,SW,222,0.0,0.0,88,0.00,CLR,SKC,0.00,WeatherDisplay:10.37,2013-01-29 06:04:00,
2013-01-28 23:09:00,28.7,25.9,29.81,SW,222,0.0,0.0,89,0.00,CLR,SKC,0.00,WeatherDisplay:10.37,2013-01-29 06:09:00,
2013-01-28 23:14:00,28.7,25.9,29.81,SW,222,0.0,0.0,89,0.00,CLR,SKC,0.00,WeatherDisplay:10.37,2013-01-29 06:14:00,
2013-01-28 23:19:00,28.7,25.8,29.81,SW,222,0.0,0.0,89,0.00,CLR,SKC,0.00,WeatherDisplay:10.37,2013-01-29 06:19:00,
2013-01-28 23:24:00,28.6,26.0,29.81,SW,222,0.0,0.0,90,0.00,CLR,SKC,0.00,WeatherDisplay:10.37,2013-01-29 06:24:00,
2013-01-28 23:29:00,28.6,26.0,29.81,SW,222,0.0,0.0,90,0.00,CLR,SKC,0.00,WeatherDisplay:10.37,2013-01-29 06:29:00,
2013-01-28 23:34:00,28.5,25.9,29.81,SW,222,0.0,0.0,90,0.00,CLR,SKC,0.00,WeatherDisplay:10.37,2013-01-29 06:34:00,
2013-01-28 23:39:00,28.5,25.9,29.81,SW,222,0.0,0.0,90,0.00,CLR,SKC,0.00,WeatherDisplay:10.37,2013-01-29 06:39:00,
2013-01-28 23:44:00,28.5,26.2,29.81,SW,222,0.0,0.0,91,0.00,CLR,SKC,0.00,WeatherDisplay:10.37,2013-01-29 06:44:00,
2013-01-28 23:49:00,28.5,26.2,29.81,SW,222,0.0,0.0,91,0.00,CLR,SKC,0.00,WeatherDisplay:10.37,2013-01-29 06:49:00,
2013-01-28 23:54:00,28.5,26.2,29.81,SW,222,0.0,0.0,91,0.00,CLR,SKC,0.00,WeatherDisplay:10.37,2013-01-29 06:54:00,
2013-01-28 23:59:00,28.5,26.2,29.81,SW,222,0.0,0.0,91,0.00,CLR,SKC,0.00,WeatherDisplay:10.37,2013-01-29 06:59:00,